Shin Chun — VRFD2 — position and weather

sailwx.info

Track history (hours):
 
Tides and Currents Weather Stations Pressure Air Temp Water Temp Dewpoint Dewpoint Depression Visibility Wind Speed Wind Dir Waves Ship Positions

Shin Chun

Last reported at 2015-Jun-29 18:05 UTC. Time now 2015-Jul-01 15:10 UTC.
Position N 22°06' E 114°23'.

Length 152 m; draft 6.3 m.

Type: Cargo ship. MMSI: 477218300.

Date/timePositionNaut miles runAvg speedWind from/ knotsBaromVisibWave heightAir tempDewpointWater temp
2015-Jun-29 18:05N 22°06' E 114°23'814.6
2015-Jun-29 17:33N 22°07' E 114°15'1210.4
2015-Jun-29 16:21N 22°16' E 114°06'4 5.1
2015-Jun-29 15:33N 22°20' E 114°08'0 0.0
2015-Jun-29 14:32N 22°20' E 114°08'0 0.1
2015-Jun-29 13:33N 22°20' E 114°08'0 0.1
2015-Jun-29 12:33N 22°20' E 114°08'0 0.0
2015-Jun-29 11:33N 22°20' E 114°08'0 0.0
2015-Jun-29 10:33N 22°20' E 114°08'0 0.0
2015-Jun-29 09:33N 22°20' E 114°08'0 0.0
2015-Jun-29 08:20N 22°20' E 114°08'0 0.0
2015-Jun-29 06:06N 22°20' E 114°08'0 0.0
2015-Jun-29 05:33N 22°20' E 114°08'15 6.7
2015-Jun-29 03:20N 22°09' E 114°18'16511.6
2015-Jun-28 13:07N 23°05' E 117°06'1 1.9
2015-Jun-28 12:33N 23°05' E 117°05'2 2.1
2015-Jun-28 11:32N 23°03' E 117°04'3 2.2
2015-Jun-28 10:23N 23°00' E 117°03'2 2.0
2015-Jun-28 09:19N 22°58' E 117°02'1 1.7
2015-Jun-28 08:28N 22°57' E 117°01'3 2.9
2015-Jun-28 07:30N 22°59' E 117°04'1313.6
2015-Jun-28 06:31N 23°07' E 117°15'4113.8
2015-Jun-28 03:33N 23°34' E 117°49'1714.0
2015-Jun-28 02:21N 23°45' E 118°03'1114.2
2015-Jun-28 01:32N 23°52' E 118°12'1413.8
2015-Jun-28 00:31N 24°01' E 118°24'1413.2
2015-Jun-27 23:26N 24°10' E 118°36'1412.8
2015-Jun-27 22:22N 24°19' E 118°48'2712.2
2015-Jun-27 20:11N 24°36' E 119°11'91 8.6
2015-Jun-27 09:30N 26°05' E 119°32'5 4.9
2015-Jun-27 08:24N 26°00' E 119°29'0 0.0
2015-Jun-27 07:30N 26°00' E 119°29'0 0.0
2015-Jun-27 06:18N 26°00' E 119°29'0 0.0
2015-Jun-27 05:30N 26°00' E 119°29'0 0.0
2015-Jun-27 04:30N 26°00' E 119°29'0 0.0
2015-Jun-27 03:30N 26°00' E 119°29'0 0.0
2015-Jun-27 02:30N 26°00' E 119°29'0 0.0
2015-Jun-27 01:24N 26°00' E 119°29'0 0.0
2015-Jun-27 00:24N 26°00' E 119°29'2 2.3
2015-Jun-26 23:33N 26°02' E 119°30'19612.3
2015-Jun-26 07:33N 22°48' E 120°03'1414.5
2015-Jun-26 06:33N 22°36' E 120°11'5 4.3
2015-Jun-26 05:29N 22°34' E 120°16'0 0.0
2015-Jun-26 04:23N 22°34' E 120°16'0 0.0
2015-Jun-26 03:33N 22°34' E 120°16'0 0.0
2015-Jun-26 02:34N 22°34' E 120°16'0 0.0
2015-Jun-26 01:33N 22°34' E 120°16'2 1.5
2015-Jun-26 00:33N 22°33' E 120°17'2 0.2
2015-Jun-25 16:31N 22°33' E 120°19'1010.1
2015-Jun-25 15:33N 22°35' E 120°09'1414.4
2015-Jun-25 14:33N 22°44' E 119°57'1614.3
2015-Jun-25 13:24N 22°54' E 119°43'9413.7
2015-Jun-25 06:31N 24°01' E 118°30'1313.4
2015-Jun-25 05:33N 24°11' E 118°21'1413.7
2015-Jun-25 04:34N 24°20' E 118°10'1110.9
2015-Jun-25 03:34N 24°30' E 118°04'2 1.4
2015-Jun-25 02:24N 24°31' E 118°05'0 0.0
2015-Jun-25 01:18N 24°31' E 118°05'0 0.0
2015-Jun-25 00:24N 24°31' E 118°05'0 0.0
2015-Jun-24 21:18N 24°31' E 118°05'0 0.0
2015-Jun-24 18:24N 24°31' E 118°05'0 0.0
2015-Jun-24 17:18N 24°31' E 118°05'0 0.0
2015-Jun-24 16:30N 24°31' E 118°05'0 0.0
2015-Jun-24 14:24N 24°31' E 118°05'0 0.0
2015-Jun-24 13:30N 24°31' E 118°05'0 0.0
2015-Jun-24 12:24N 24°31' E 118°05'0 0.0
2015-Jun-24 09:24N 24°31' E 118°05'0 0.4
2015-Jun-24 08:33N 24°31' E 118°05'9 9.3
2015-Jun-24 07:33N 24°22' E 118°08'8 8.0
2015-Jun-24 06:33N 24°20' E 118°17'1913.1
2015-Jun-24 05:06N 24°22' E 118°37'3212.6
2015-Jun-24 02:33N 24°32' E 119°11'132 4.3
2015-Jun-22 19:31N 22°35' E 120°18'0 0.0
2015-Jun-22 18:25N 22°35' E 120°18'0 0.0
2015-Jun-22 17:13N 22°35' E 120°18'0 0.0
2015-Jun-22 16:19N 22°35' E 120°18'0 0.0
2015-Jun-22 15:31N 22°35' E 120°18'0 0.0
2015-Jun-22 14:31N 22°35' E 120°18'3 3.0
2015-Jun-22 13:33N 22°37' E 120°16'2 1.9
2015-Jun-22 12:28N 22°38' E 120°14'0 0.0
2015-Jun-22 11:28N 22°38' E 120°14'0 0.0
2015-Jun-22 10:28N 22°38' E 120°14'0 0.0
2015-Jun-22 09:28N 22°38' E 120°14'0 0.1
2015-Jun-22 08:28N 22°38' E 120°15'0 0.1
2015-Jun-22 07:28N 22°38' E 120°14'0 0.0
2015-Jun-22 06:28N 22°38' E 120°14'0 0.0
2015-Jun-22 05:22N 22°38' E 120°14'0 0.0
2015-Jun-22 04:28N 22°38' E 120°14'0 0.0
2015-Jun-22 03:28N 22°38' E 120°14'0 0.0
2015-Jun-22 02:34N 22°38' E 120°14'0 0.0
2015-Jun-22 01:28N 22°38' E 120°14'0 0.0
2015-Jun-22 00:33N 22°38' E 120°14'0 0.0
2015-Jun-21 23:33N 22°38' E 120°14'0 0.1
2015-Jun-21 22:33N 22°38' E 120°14'6 5.5
2015-Jun-21 21:33N 22°41' E 120°10'1414.2
2015-Jun-21 20:33N 22°53' E 120°00'7412.2
2015-Jun-21 14:31N 24°07' E 119°57'12312.3
2015-Jun-21 04:34N 26°08' E 119°35'9 8.7
2015-Jun-21 03:28N 26°00' E 119°29'0 0.0
2015-Jun-21 02:28N 26°00' E 119°29'0 0.0
2015-Jun-21 01:28N 26°00' E 119°29'0 0.0
2015-Jun-21 00:10N 26°00' E 119°29'0 0.0
2015-Jun-20 23:22N 26°00' E 119°29'0 0.0
2015-Jun-20 22:28N 26°00' E 119°29'0 0.0
2015-Jun-20 21:28N 26°00' E 119°29'0 0.0
2015-Jun-20 20:16N 26°00' E 119°29'0 0.0
2015-Jun-20 19:10N 26°00' E 119°29'0 0.0
2015-Jun-20 18:28N 26°00' E 119°29'0 0.0
2015-Jun-20 17:28N 26°00' E 119°29'0 0.0
2015-Jun-20 16:28N 26°00' E 119°29'0 0.0
2015-Jun-20 15:28N 26°00' E 119°29'0 0.0
2015-Jun-20 14:28N 26°00' E 119°29'0 0.0
2015-Jun-20 13:28N 26°00' E 119°29'0 0.0
2015-Jun-20 12:28N 26°00' E 119°29'0 0.0
2015-Jun-20 11:28N 26°00' E 119°29'0 0.0
2015-Jun-20 10:22N 26°00' E 119°29'0 0.0
2015-Jun-20 09:28N 26°00' E 119°29'0 0.0
2015-Jun-20 08:28N 26°00' E 119°29'0 0.0
2015-Jun-20 07:22N 26°00' E 119°29'0 0.0
2015-Jun-20 06:28N 26°00' E 119°29'0 0.0
2015-Jun-20 05:28N 26°00' E 119°29'0 0.0
2015-Jun-20 04:33N 26°00' E 119°29'  
Track history (hours):
 
Tides and Currents Weather Stations Pressure Air Temp Water Temp Dewpoint Dewpoint Depression Visibility Wind Speed Wind Dir Waves Ship Positions

Shin Chun

Last reported at 2015-Jun-29 18:05 UTC. Time now 2015-Jul-01 15:10 UTC.
Position N 22°06' E 114°23'.

Length 152 m; draft 6.3 m.

Type: Cargo ship. MMSI: 477218300.

Date/timePositionNaut miles runAvg speedWind from/ knotsBaromVisibWave heightAir tempDewpointWater temp
2015-Jun-29 18:05N 22°06' E 114°23'814.6
2015-Jun-29 17:33N 22°07' E 114°15'1210.4
2015-Jun-29 16:21N 22°16' E 114°06'4 5.1
2015-Jun-29 15:33N 22°20' E 114°08'0 0.0
2015-Jun-29 14:32N 22°20' E 114°08'0 0.1
2015-Jun-29 13:33N 22°20' E 114°08'0 0.1
2015-Jun-29 12:33N 22°20' E 114°08'0 0.0
2015-Jun-29 11:33N 22°20' E 114°08'0 0.0
2015-Jun-29 10:33N 22°20' E 114°08'0 0.0
2015-Jun-29 09:33N 22°20' E 114°08'0 0.0
2015-Jun-29 08:20N 22°20' E 114°08'0 0.0
2015-Jun-29 06:06N 22°20' E 114°08'0 0.0
2015-Jun-29 05:33N 22°20' E 114°08'15 6.7
2015-Jun-29 03:20N 22°09' E 114°18'16511.6
2015-Jun-28 13:07N 23°05' E 117°06'1 1.9
2015-Jun-28 12:33N 23°05' E 117°05'2 2.1
2015-Jun-28 11:32N 23°03' E 117°04'3 2.2
2015-Jun-28 10:23N 23°00' E 117°03'2 2.0
2015-Jun-28 09:19N 22°58' E 117°02'1 1.7
2015-Jun-28 08:28N 22°57' E 117°01'3 2.9
2015-Jun-28 07:30N 22°59' E 117°04'1313.6
2015-Jun-28 06:31N 23°07' E 117°15'4113.8
2015-Jun-28 03:33N 23°34' E 117°49'1714.0
2015-Jun-28 02:21N 23°45' E 118°03'1114.2
2015-Jun-28 01:32N 23°52' E 118°12'1413.8
2015-Jun-28 00:31N 24°01' E 118°24'1413.2
2015-Jun-27 23:26N 24°10' E 118°36'1412.8
2015-Jun-27 22:22N 24°19' E 118°48'2712.2
2015-Jun-27 20:11N 24°36' E 119°11'91 8.6
2015-Jun-27 09:30N 26°05' E 119°32'5 4.9
2015-Jun-27 08:24N 26°00' E 119°29'0 0.0
2015-Jun-27 07:30N 26°00' E 119°29'0 0.0
2015-Jun-27 06:18N 26°00' E 119°29'0 0.0
2015-Jun-27 05:30N 26°00' E 119°29'0 0.0
2015-Jun-27 04:30N 26°00' E 119°29'0 0.0
2015-Jun-27 03:30N 26°00' E 119°29'0 0.0
2015-Jun-27 02:30N 26°00' E 119°29'0 0.0
2015-Jun-27 01:24N 26°00' E 119°29'0 0.0
2015-Jun-27 00:24N 26°00' E 119°29'2 2.3
2015-Jun-26 23:33N 26°02' E 119°30'19612.3
2015-Jun-26 07:33N 22°48' E 120°03'1414.5
2015-Jun-26 06:33N 22°36' E 120°11'5 4.3
2015-Jun-26 05:29N 22°34' E 120°16'0 0.0
2015-Jun-26 04:23N 22°34' E 120°16'0 0.0
2015-Jun-26 03:33N 22°34' E 120°16'0 0.0
2015-Jun-26 02:34N 22°34' E 120°16'0 0.0
2015-Jun-26 01:33N 22°34' E 120°16'2 1.5
2015-Jun-26 00:33N 22°33' E 120°17'2 0.2
2015-Jun-25 16:31N 22°33' E 120°19'1010.1
2015-Jun-25 15:33N 22°35' E 120°09'1414.4
2015-Jun-25 14:33N 22°44' E 119°57'1614.3
2015-Jun-25 13:24N 22°54' E 119°43'9413.7
2015-Jun-25 06:31N 24°01' E 118°30'1313.4
2015-Jun-25 05:33N 24°11' E 118°21'1413.7
2015-Jun-25 04:34N 24°20' E 118°10'1110.9
2015-Jun-25 03:34N 24°30' E 118°04'2 1.4
2015-Jun-25 02:24N 24°31' E 118°05'0 0.0
2015-Jun-25 01:18N 24°31' E 118°05'0 0.0
2015-Jun-25 00:24N 24°31' E 118°05'0 0.0
2015-Jun-24 21:18N 24°31' E 118°05'0 0.0
2015-Jun-24 18:24N 24°31' E 118°05'0 0.0
2015-Jun-24 17:18N 24°31' E 118°05'0 0.0
2015-Jun-24 16:30N 24°31' E 118°05'0 0.0
2015-Jun-24 14:24N 24°31' E 118°05'0 0.0
2015-Jun-24 13:30N 24°31' E 118°05'0 0.0
2015-Jun-24 12:24N 24°31' E 118°05'0 0.0
2015-Jun-24 09:24N 24°31' E 118°05'0 0.4
2015-Jun-24 08:33N 24°31' E 118°05'9 9.3
2015-Jun-24 07:33N 24°22' E 118°08'8 8.0
2015-Jun-24 06:33N 24°20' E 118°17'1913.1
2015-Jun-24 05:06N 24°22' E 118°37'3212.6
2015-Jun-24 02:33N 24°32' E 119°11'132 4.3
2015-Jun-22 19:31N 22°35' E 120°18'0 0.0
2015-Jun-22 18:25N 22°35' E 120°18'0 0.0
2015-Jun-22 17:13N 22°35' E 120°18'0 0.0
2015-Jun-22 16:19N 22°35' E 120°18'0 0.0
2015-Jun-22 15:31N 22°35' E 120°18'0 0.0
2015-Jun-22 14:31N 22°35' E 120°18'3 3.0
2015-Jun-22 13:33N 22°37' E 120°16'2 1.9
2015-Jun-22 12:28N 22°38' E 120°14'0 0.0
2015-Jun-22 11:28N 22°38' E 120°14'0 0.0
2015-Jun-22 10:28N 22°38' E 120°14'0 0.0
2015-Jun-22 09:28N 22°38' E 120°14'0 0.1
2015-Jun-22 08:28N 22°38' E 120°15'0 0.1
2015-Jun-22 07:28N 22°38' E 120°14'0 0.0
2015-Jun-22 06:28N 22°38' E 120°14'0 0.0
2015-Jun-22 05:22N 22°38' E 120°14'0 0.0
2015-Jun-22 04:28N 22°38' E 120°14'0 0.0
2015-Jun-22 03:28N 22°38' E 120°14'0 0.0
2015-Jun-22 02:34N 22°38' E 120°14'0 0.0
2015-Jun-22 01:28N 22°38' E 120°14'0 0.0
2015-Jun-22 00:33N 22°38' E 120°14'0 0.0
2015-Jun-21 23:33N 22°38' E 120°14'0 0.1
2015-Jun-21 22:33N 22°38' E 120°14'6 5.5
2015-Jun-21 21:33N 22°41' E 120°10'1414.2
2015-Jun-21 20:33N 22°53' E 120°00'7412.2
2015-Jun-21 14:31N 24°07' E 119°57'12312.3
2015-Jun-21 04:34N 26°08' E 119°35'9 8.7
2015-Jun-21 03:28N 26°00' E 119°29'0 0.0
2015-Jun-21 02:28N 26°00' E 119°29'0 0.0
2015-Jun-21 01:28N 26°00' E 119°29'0 0.0
2015-Jun-21 00:10N 26°00' E 119°29'0 0.0
2015-Jun-20 23:22N 26°00' E 119°29'0 0.0
2015-Jun-20 22:28N 26°00' E 119°29'0 0.0
2015-Jun-20 21:28N 26°00' E 119°29'0 0.0
2015-Jun-20 20:16N 26°00' E 119°29'0 0.0
2015-Jun-20 19:10N 26°00' E 119°29'0 0.0
2015-Jun-20 18:28N 26°00' E 119°29'0 0.0
2015-Jun-20 17:28N 26°00' E 119°29'0 0.0
2015-Jun-20 16:28N 26°00' E 119°29'0 0.0
2015-Jun-20 15:28N 26°00' E 119°29'0 0.0
2015-Jun-20 14:28N 26°00' E 119°29'0 0.0
2015-Jun-20 13:28N 26°00' E 119°29'0 0.0
2015-Jun-20 12:28N 26°00' E 119°29'0 0.0
2015-Jun-20 11:28N 26°00' E 119°29'0 0.0
2015-Jun-20 10:22N 26°00' E 119°29'0 0.0
2015-Jun-20 09:28N 26°00' E 119°29'0 0.0
2015-Jun-20 08:28N 26°00' E 119°29'0 0.0
2015-Jun-20 07:22N 26°00' E 119°29'0 0.0
2015-Jun-20 06:28N 26°00' E 119°29'0 0.0
2015-Jun-20 05:28N 26°00' E 119°29'0 0.0
2015-Jun-20 04:33N 26°00' E 119°29'  

Dump ship's entire track history